Avenel, New Jersey
Current Conditions -  °F | °C
As of 12:35 PM on Thursday 30 Oct 2014 (Local Time) from KLDJ Reporting Station
Clear Clear  
Wind Chill: 16°   Ceiling: Unl
Heat Index: 16°   Visibility: 10mi
Dew Point:   Wind: 9mph
Humidity: 49%   Direction: 360°N
Pressure: 30.02"   Gusts: NA
Location:  40.58°N, 74.28°W
Report Text: KLDJ 301635Z AUTO 36008KT 10SM CLR 16/05 A3002 RMK AO2 T01590052
Loading
Personal Weather Stations






























Interactive Weather Map
Tropical Storm Tracking
New forecast layout! Learn more

10-Day Weather Forecast

Advertisements
Track Severe Weather on mobile